Time;durP1;ratioP1;P1;durP2;ratioP2;P2;SDS_P1;SDS_P2;PMS_P1;PMS_P2;Temp;Humidity;BMP_temperature;BMP_pressure;BME280_temperature;BME280_humidity;BME280_pressure;Samples;Min_cycle;Max_cycle;Signal;HPM_P1;HPM_P2
2021/11/16 00:02:08;;;;;;;48.05;22.80;;;;;;;6.96;93.28;101135.09;5029908;28;20045;-54
2021/11/16 00:04:36;;;;;;;48.20;23.20;;;;;;;7.01;93.15;101125.34;5030131;28;20041;-53
2021/11/16 00:07:05;;;;;;;46.10;21.85;;;;;;;7.02;92.31;101130.59;5028945;28;20107;-54
2021/11/16 00:09:32;;;;;;;51.30;24.75;;;;;;;6.98;93.15;101128.91;5028506;28;20089;-53
2021/11/16 00:11:59;;;;;;;47.88;22.95;;;;;;;6.94;93.49;101131.63;5030751;28;20132;-53
2021/11/16 00:14:28;;;;;;;47.65;23.60;;;;;;;6.94;93.13;101129.00;5033441;28;20680;-52
2021/11/16 00:16:54;;;;;;;49.92;22.92;;;;;;;6.97;93.15;101134.19;5029604;28;20052;-54
2021/11/16 00:19:21;;;;;;;46.60;22.08;;;;;;;6.94;93.51;101134.25;5025638;28;20055;-54
2021/11/16 00:21:49;;;;;;;51.03;25.77;;;;;;;6.90;93.29;101133.47;5034312;28;20613;-53
2021/11/16 00:24:22;;;;;;;51.38;24.52;;;;;;;6.90;93.65;101138.75;5028737;28;20068;-52
2021/11/16 00:26:48;;;;;;;50.08;23.65;;;;;;;6.89;93.77;101136.13;5030374;28;20037;-53
2021/11/16 00:29:16;;;;;;;49.83;24.20;;;;;;;6.89;94.09;101134.38;5023821;28;20056;-53
2021/11/16 00:31:42;;;;;;;48.80;24.05;;;;;;;6.91;94.00;101129.94;5030964;28;20040;-53
2021/11/16 00:34:09;;;;;;;50.08;24.05;;;;;;;6.89;94.06;101133.50;5028148;28;20148;-52
2021/11/16 00:36:36;;;;;;;54.42;25.17;;;;;;;6.85;94.00;101130.06;5033693;28;20535;-52
2021/11/16 00:39:03;;;;;;;55.53;25.02;;;;;;;6.86;93.75;101133.56;5027608;28;20049;-53
2021/11/16 00:41:30;;;;;;;54.42;24.45;;;;;;;6.80;94.35;101131.03;5032865;28;20056;-53
2021/11/16 00:43:57;;;;;;;55.03;23.85;;;;;;;6.71;94.92;101112.81;5026317;28;20041;-55
2021/11/16 00:46:24;;;;;;;55.97;24.23;;;;;;;6.80;94.91;101141.56;5033190;28;20067;-53
2021/11/16 00:48:51;;;;;;;52.30;25.60;;;;;;;6.78;95.47;101131.06;5025449;28;20053;-53
2021/11/16 00:51:18;;;;;;;59.45;25.88;;;;;;;6.85;95.02;101134.47;5030239;28;20175;-52
2021/11/16 00:53:44;;;;;;;49.95;24.33;;;;;;;6.85;94.73;101131.81;5029095;28;20045;-53
2021/11/16 00:56:11;;;;;;;52.60;24.80;;;;;;;6.83;95.12;101128.34;5025070;28;20045;-53
2021/11/16 00:58:38;;;;;;;54.17;24.27;;;;;;;6.85;95.24;101129.19;5027277;28;20056;-53
2021/11/16 01:01:05;;;;;;;53.63;24.55;;;;;;;6.82;94.89;101129.25;5028408;28;20047;-53
2021/11/16 01:03:32;;;;;;;54.70;25.65;;;;;;;6.81;95.27;101140.66;5019493;28;20060;-52
2021/11/16 01:05:59;;;;;;;55.55;25.52;;;;;;;6.79;95.47;101138.06;5025031;28;20075;-54
2021/11/16 01:08:25;;;;;;;54.13;24.90;;;;;;;6.78;95.53;101140.72;5024776;28;20048;-54
2021/11/16 01:10:54;;;;;;;53.75;25.05;;;;;;;6.78;95.32;101133.69;5028427;28;20524;-52
2021/11/16 01:13:22;;;;;;;54.03;24.67;;;;;;;6.73;95.31;101142.59;5031884;28;20045;-53
2021/11/16 01:15:51;;;;;;;56.03;25.35;;;;;;;6.73;95.35;101132.06;5025204;28;20069;-53
2021/11/16 01:18:20;;;;;;;51.63;24.90;;;;;;;6.72;95.36;101135.59;5031691;28;20052;-52
2021/11/16 01:20:48;;;;;;;55.85;24.17;;;;;;;6.72;95.63;101127.69;5031506;28;20056;-51
2021/11/16 01:27:39;;;;;;;51.78;24.90;;;;;;;6.68;95.94;101122.50;5029779;28;20036;-54
2021/11/16 01:30:18;;;;;;;56.38;26.30;;;;;;;6.71;95.64;101115.44;5027911;28;20051;-52
2021/11/16 01:35:47;;;;;;;62.08;27.55;;;;;;;6.75;95.68;101114.50;4964108;28;20043;-55
2021/11/16 01:38:16;;;;;;;57.00;24.98;;;;;;;6.72;95.77;101119.81;5020145;28;20054;-52
2021/11/16 01:40:45;;;;;;;53.25;25.00;;;;;;;6.74;95.79;101110.13;5034108;28;20053;-54
2021/11/16 01:43:13;;;;;;;53.80;24.40;;;;;;;6.70;95.83;101114.56;5034835;28;20415;-54
2021/11/16 01:46:00;;;;;;;53.83;24.45;;;;;;;6.73;95.95;101122.41;5029505;28;20137;-54
2021/11/16 01:48:27;;;;;;;58.63;25.08;;;;;;;6.72;95.71;101114.53;5030956;28;20038;-52
2021/11/16 01:50:54;;;;;;;53.88;25.23;;;;;;;6.71;96.17;101115.44;5038047;28;20060;-51
2021/11/16 01:53:20;;;;;;;54.08;24.90;;;;;;;6.72;95.94;101114.53;5030070;28;20054;-53
2021/11/16 01:55:47;;;;;;;52.53;25.15;;;;;;;6.70;95.66;101106.69;5025966;28;20045;-52
2021/11/16 01:58:13;;;;;;;52.90;24.65;;;;;;;6.75;95.48;101114.50;5029487;28;20049;-53
2021/11/16 02:00:44;;;;;;;55.65;24.92;;;;;;;6.74;95.24;101112.75;5030450;28;20136;-52
2021/11/16 02:03:11;;;;;;;54.22;24.00;;;;;;;6.70;95.68;101106.69;5036837;28;20473;-52
2021/11/16 02:05:45;;;;;;;56.28;25.58;;;;;;;6.75;95.41;101110.09;5026968;28;20056;-53
2021/11/16 02:08:14;;;;;;;58.58;25.08;;;;;;;6.80;95.12;101096.81;5026297;28;20502;-53
2021/11/16 02:10:43;;;;;;;54.90;23.80;;;;;;;6.73;95.08;101096.09;5032482;28;20063;-53
2021/11/16 02:13:10;;;;;;;51.58;24.80;;;;;;;6.75;95.41;101101.34;5033624;28;20068;-53
2021/11/16 02:15:37;;;;;;;55.25;24.55;;;;;;;6.71;95.08;101094.38;5027221;28;20041;-52
2021/11/16 02:18:09;;;;;;;60.05;24.05;;;;;;;6.72;95.62;101098.75;5035317;28;20509;-54
2021/11/16 02:20:38;;;;;;;55.53;25.20;;;;;;;6.68;95.81;101087.41;5038024;28;20055;-53
2021/11/16 02:23:06;;;;;;;53.05;24.92;;;;;;;6.72;95.71;101089.09;5037375;28;20087;-52
2021/11/16 02:25:33;;;;;;;51.40;23.45;;;;;;;6.72;95.33;101088.22;5028975;28;20120;-53
2021/11/16 02:28:00;;;;;;;52.35;24.13;;;;;;;6.68;95.54;101092.69;5036361;28;20335;-52
2021/11/16 02:30:27;;;;;;;49.35;23.88;;;;;;;6.65;96.21;101077.81;5035998;28;20045;-53
2021/11/16 02:32:54;;;;;;;51.63;23.33;;;;;;;6.65;95.77;101085.69;5034891;28;20517;-52
2021/11/16 02:35:24;;;;;;;50.05;23.70;;;;;;;6.63;96.14;101074.34;5027840;28;20044;-54
2021/11/16 02:37:52;;;;;;;57.08;25.15;;;;;;;6.63;95.83;101069.06;5033621;28;20966;-56
2021/11/16 02:40:18;;;;;;;51.80;23.80;;;;;;;6.63;95.97;101066.44;5034417;28;20049;-53
2021/11/16 02:42:45;;;;;;;53.90;23.90;;;;;;;6.63;96.12;101066.44;5037547;28;20092;-52
2021/11/16 02:45:14;;;;;;;54.03;25.13;;;;;;;6.63;96.40;101066.44;5028034;28;20778;-54
2021/11/16 02:47:40;;;;;;;53.28;25.65;;;;;;;6.64;96.40;101060.28;5041993;28;20037;-53
2021/11/16 02:50:07;;;;;;;54.08;23.98;;;;;;;6.63;96.17;101066.44;5031816;28;20049;-55
2021/11/16 02:52:34;;;;;;;50.55;23.60;;;;;;;6.66;96.56;101062.88;5038245;28;20048;-54
2021/11/16 02:55:01;;;;;;;52.08;24.65;;;;;;;6.64;96.15;101070.81;5029515;28;20132;-53
2021/11/16 02:57:27;;;;;;;52.58;24.75;;;;;;;6.64;96.43;101067.31;5039591;28;20044;-52
2021/11/16 02:59:54;;;;;;;56.67;25.73;;;;;;;6.63;96.53;101068.19;5032640;28;20064;-52
2021/11/16 03:02:20;;;;;;;54.20;24.67;;;;;;;6.65;96.71;101064.66;5018018;28;20041;-51
2021/11/16 03:04:47;;;;;;;53.97;23.75;;;;;;;6.66;96.45;101058.50;5026698;28;20087;-53
2021/11/16 03:07:30;;;;;;;53.25;24.77;;;;;;;6.67;96.14;101057.59;5029573;28;20060;-52
2021/11/16 03:09:56;;;;;;;56.10;25.33;;;;;;;6.65;96.28;101054.13;5032884;28;20064;-52
2021/11/16 03:12:29;;;;;;;49.35;22.95;;;;;;;6.61;96.64;101049.81;5037563;28;20154;-53
2021/11/16 03:14:56;;;;;;;54.00;23.75;;;;;;;6.57;96.81;101052.56;5029296;28;20044;-53
2021/11/16 03:17:24;;;;;;;56.13;24.48;;;;;;;6.55;97.00;101038.56;5033889;28;20049;-53
2021/11/16 03:19:51;;;;;;;52.60;22.80;;;;;;;6.57;96.84;101042.91;5036487;28;20036;-52
2021/11/16 03:22:17;;;;;;;58.65;25.08;;;;;;;6.57;96.73;101048.16;5036775;28;20049;-52
2021/11/16 03:24:44;;;;;;;52.38;24.80;;;;;;;6.54;96.86;101048.22;5029067;28;20053;-53
2021/11/16 03:27:14;;;;;;;56.33;24.48;;;;;;;6.48;96.51;101027.28;5031392;28;20750;-52
2021/11/16 03:29:45;;;;;;;60.70;25.23;;;;;;;6.55;96.61;101044.69;5033926;28;20056;-55
2021/11/16 03:32:15;;;;;;;55.40;24.77;;;;;;;6.56;97.13;101043.78;5035070;28;20053;-51
2021/11/16 03:34:43;;;;;;;53.83;23.88;;;;;;;6.53;97.13;101035.97;5031590;28;20052;-56
2021/11/16 03:37:11;;;;;;;57.75;25.17;;;;;;;6.55;97.34;101038.56;5029452;28;20057;-52
2021/11/16 03:39:37;;;;;;;55.70;23.67;;;;;;;6.52;97.15;101033.34;5035126;28;20447;-53
2021/11/16 03:42:05;;;;;;;54.03;24.17;;;;;;;6.50;97.38;101033.38;5034263;28;20064;-54
2021/11/16 03:44:33;;;;;;;55.70;23.83;;;;;;;6.54;97.37;101034.19;5030459;28;20505;-52
2021/11/16 03:47:01;;;;;;;54.85;24.60;;;;;;;6.52;97.62;101036.84;5028726;28;20056;-53
2021/11/16 03:49:28;;;;;;;56.33;24.20;;;;;;;6.54;97.61;101035.06;5036548;28;20041;-53
2021/11/16 03:51:54;;;;;;;57.25;24.98;;;;;;;6.57;97.24;101039.41;5036742;28;20055;-53
2021/11/16 03:54:21;;;;;;;56.85;24.48;;;;;;;6.53;97.23;101042.97;5038916;28;20044;-53
2021/11/16 03:56:48;;;;;;;60.13;25.00;;;;;;;6.50;97.60;101033.38;5030637;28;20042;-54
2021/11/16 03:59:15;;;;;;;55.75;24.90;;;;;;;6.53;97.85;101027.19;5031765;28;20060;-53
2021/11/16 04:01:41;;;;;;;54.03;24.42;;;;;;;6.52;97.69;101030.72;5039367;28;20048;-53
2021/11/16 04:04:10;;;;;;;55.42;24.40;;;;;;;6.49;97.10;101018.50;5034294;28;20072;-53
2021/11/16 04:06:36;;;;;;;55.08;24.17;;;;;;;6.49;97.40;101022.88;5027163;28;20069;-54
2021/11/16 04:09:03;;;;;;;56.03;24.52;;;;;;;6.34;97.52;101003.00;5034777;28;20041;-56
2021/11/16 04:11:30;;;;;;;56.63;24.15;;;;;;;6.44;97.65;101020.38;5035007;28;20120;-54
2021/11/16 04:13:57;;;;;;;56.25;24.70;;;;;;;6.49;97.88;101025.50;5032997;28;20041;-53
2021/11/16 04:16:23;;;;;;;53.88;23.23;;;;;;;6.48;97.59;101027.28;5030814;28;20053;-54
2021/11/16 04:18:50;;;;;;;52.95;23.90;;;;;;;6.51;97.67;101031.63;5039171;28;20124;-52
2021/11/16 04:21:17;;;;;;;55.65;24.80;;;;;;;6.52;97.35;101025.47;5033708;28;20037;-54
2021/11/16 04:23:44;;;;;;;59.03;25.25;;;;;;;6.52;97.63;101031.59;5032850;28;20248;-53
2021/11/16 04:26:11;;;;;;;52.92;23.63;;;;;;;6.54;97.22;101024.53;5026148;28;20052;-55
2021/11/16 04:28:38;;;;;;;56.08;25.27;;;;;;;6.51;97.52;101023.72;5036076;28;20053;-53
2021/11/16 04:31:05;;;;;;;56.35;25.38;;;;;;;6.43;97.64;100997.59;5038442;28;20120;-52
2021/11/16 04:33:31;;;;;;;56.05;24.23;;;;;;;6.56;97.06;101014.84;5030992;28;20041;-54
2021/11/16 04:35:58;;;;;;;57.05;24.42;;;;;;;6.51;96.86;101015.84;5026190;28;20045;-52
2021/11/16 04:38:25;;;;;;;56.58;23.45;;;;;;;6.49;97.67;101007.97;5034749;28;20045;-52
2021/11/16 04:40:55;;;;;;;56.97;25.23;;;;;;;6.47;97.66;101007.13;5042008;28;20554;-54
2021/11/16 04:43:25;;;;;;;62.83;25.73;;;;;;;6.49;97.35;101013.22;5030245;28;20456;-53
2021/11/16 04:45:56;;;;;;;66.22;26.67;;;;;;;6.51;97.52;100998.28;5031581;28;20045;-54
2021/11/16 04:49:15;;;;;;;51.70;23.23;;;;;;;6.52;97.32;101001.78;5022142;28;20560;-52
2021/11/16 05:05:01;;;;;;;54.42;24.98;;;;;;;6.51;97.61;101002.69;5029027;28;20410;-53
2021/11/16 05:07:31;;;;;;;55.90;23.58;;;;;;;6.41;97.00;100975.69;5015284;28;20052;-53
2021/11/16 05:09:59;;;;;;;55.97;24.45;;;;;;;6.56;96.99;101001.69;5033815;28;20136;-53
2021/11/16 05:12:27;;;;;;;49.33;22.25;;;;;;;6.58;96.56;101018.31;5035906;28;20052;-54
2021/11/16 05:14:57;;;;;;;60.67;24.60;;;;;;;6.57;97.11;101018.34;5030676;28;20399;-51
2021/11/16 05:17:23;;;;;;;52.92;24.00;;;;;;;6.59;97.02;101022.69;5028658;28;20116;-52
2021/11/16 05:19:50;;;;;;;56.38;24.85;;;;;;;6.54;97.43;101015.78;5032348;28;20041;-52
2021/11/16 05:22:17;;;;;;;57.63;24.15;;;;;;;6.52;97.41;101005.28;5032707;28;20412;-54
2021/11/16 05:24:43;;;;;;;51.75;23.95;;;;;;;6.52;97.32;101010.53;5033258;28;20045;-52
2021/11/16 05:27:10;;;;;;;55.95;24.02;;;;;;;6.53;97.26;101019.31;5032339;28;20045;-52
2021/11/16 05:29:37;;;;;;;57.50;24.40;;;;;;;6.49;97.50;101015.84;5028055;28;20659;-53
2021/11/16 05:32:04;;;;;;;54.28;23.52;;;;;;;6.41;97.99;100993.25;5029513;28;20534;-54
2021/11/16 05:34:30;;;;;;;54.30;24.20;;;;;;;6.51;97.82;101021.97;5031654;28;20125;-52
2021/11/16 05:36:57;;;;;;;56.15;24.80;;;;;;;6.52;97.71;101020.19;5036934;28;20041;-54
2021/11/16 05:39:23;;;;;;;57.90;25.33;;;;;;;6.55;97.41;101020.16;5032884;28;20072;-54
2021/11/16 05:41:50;;;;;;;64.38;25.52;;;;;;;6.41;97.23;100993.25;5030810;28;20866;-53
2021/11/16 05:44:19;;;;;;;52.95;24.13;;;;;;;6.48;97.90;101016.75;5028921;28;20422;-53
2021/11/16 05:46:45;;;;;;;58.55;25.08;;;;;;;6.49;98.18;101015.00;5029591;28;20048;-52
2021/11/16 05:49:12;;;;;;;59.00;24.98;;;;;;;6.48;98.09;101013.25;5036543;28;20049;-52
2021/11/16 05:51:39;;;;;;;50.65;22.83;;;;;;;6.46;98.25;101017.69;5034908;28;20490;-53
2021/11/16 05:54:06;;;;;;;54.70;25.35;;;;;;;6.48;98.17;101022.03;5011350;28;20045;-53
2021/11/16 05:56:35;;;;;;;51.83;23.42;;;;;;;6.48;98.29;101027.28;5027832;28;20049;-53
2021/11/16 05:59:03;;;;;;;54.67;24.40;;;;;;;6.47;98.57;101020.28;5031786;28;20049;-53
2021/11/16 06:01:33;;;;;;;53.72;24.17;;;;;;;6.46;98.58;101029.06;5033723;28;20056;-56
2021/11/16 06:04:06;;;;;;;53.10;24.10;;;;;;;6.52;98.76;101031.59;5038562;28;20100;-52
2021/11/16 06:06:33;;;;;;;56.60;22.90;;;;;;;6.59;97.91;101032.34;5032688;28;20065;-54
2021/11/16 06:09:02;;;;;;;54.67;23.85;;;;;;;6.61;97.59;101034.03;5029091;28;20061;-54
2021/11/16 06:11:30;;;;;;;55.80;24.87;;;;;;;6.60;97.74;101042.84;5033643;28;20049;-53
2021/11/16 06:13:57;;;;;;;53.70;23.20;;;;;;;6.61;97.29;101038.44;5034099;28;20048;-56
2021/11/16 06:16:24;;;;;;;59.08;24.48;;;;;;;6.61;97.53;101041.06;5038164;28;20056;-54
2021/11/16 06:18:59;;;;;;;52.58;24.13;;;;;;;6.57;97.29;101042.03;5036296;28;20053;-53
2021/11/16 06:21:28;;;;;;;51.70;23.25;;;;;;;6.56;96.97;101046.44;5039210;28;20068;-53
2021/11/16 06:23:55;;;;;;;54.13;24.17;;;;;;;6.58;97.37;101033.25;5035983;28;20045;-53
2021/11/16 06:26:22;;;;;;;53.30;24.23;;;;;;;6.58;97.26;101043.78;5030291;28;20052;-53
2021/11/16 06:28:49;;;;;;;47.90;22.67;;;;;;;6.60;97.17;101039.34;5032465;28;20059;-52
2021/11/16 06:31:20;;;;;;;55.33;23.42;;;;;;;6.62;96.99;101035.75;5035992;28;20048;-52
2021/11/16 06:33:48;;;;;;;46.38;21.92;;;;;;;6.61;96.63;101038.44;5037442;28;20041;-53
2021/11/16 06:36:15;;;;;;;53.80;22.70;;;;;;;6.65;96.52;101046.22;5034110;28;20419;-53
2021/11/16 06:38:41;;;;;;;50.13;22.33;;;;;;;6.64;96.52;101051.50;5036644;28;20041;-54
2021/11/16 06:41:08;;;;;;;52.72;24.48;;;;;;;6.62;96.62;101050.69;5041853;28;20045;-54
2021/11/16 06:43:35;;;;;;;50.50;22.80;;;;;;;6.63;96.53;101052.41;5035191;28;20689;-55
2021/11/16 06:46:03;;;;;;;50.72;23.02;;;;;;;6.64;96.37;101062.91;5033401;28;20041;-52
2021/11/16 06:48:30;;;;;;;48.83;23.35;;;;;;;6.61;96.71;101070.88;5037968;28;20049;-53
2021/11/16 06:50:58;;;;;;;54.05;23.58;;;;;;;6.60;96.95;101071.78;5035066;28;20063;-53
2021/11/16 06:53:34;;;;;;;49.38;23.02;;;;;;;6.61;97.20;101072.66;5031055;28;20142;-53
2021/11/16 06:56:04;;;;;;;50.88;22.98;;;;;;;6.61;97.10;101081.38;5037942;28;20057;-57
2021/11/16 06:58:34;;;;;;;48.08;22.88;;;;;;;6.64;97.09;101072.56;5032856;28;20156;-54
2021/11/16 07:01:04;;;;;;;45.95;22.10;;;;;;;6.65;97.01;101082.19;5036479;28;20125;-54
2021/11/16 07:03:31;;;;;;;46.28;21.98;;;;;;;6.65;96.78;101072.53;5035950;28;20049;-52
2021/11/16 07:06:01;;;;;;;49.00;22.77;;;;;;;6.67;96.38;101075.16;5028253;28;20060;-52
2021/11/16 07:08:37;;;;;;;54.33;22.67;;;;;;;6.69;96.29;101076.84;5032710;28;20045;-52
2021/11/16 07:11:06;;;;;;;48.25;21.77;;;;;;;6.66;96.25;101074.28;5034019;28;20041;-53
2021/11/16 07:13:35;;;;;;;47.08;22.98;;;;;;;6.69;96.33;101081.25;5036448;28;20056;-54
2021/11/16 07:16:10;;;;;;;47.35;22.42;;;;;;;6.67;95.69;101073.38;5037061;28;20049;-53
2021/11/16 07:18:51;;;;;;;47.95;21.95;;;;;;;6.65;96.44;101083.06;5036149;28;20493;-54
2021/11/16 07:21:23;;;;;;;43.22;21.27;;;;;;;6.63;96.29;101076.97;5039116;28;20055;-53
2021/11/16 07:24:09;;;;;;;46.05;21.38;;;;;;;6.65;96.27;101079.56;5029672;28;20156;-51
2021/11/16 07:26:41;;;;;;;44.17;21.00;;;;;;;6.68;96.22;101082.16;5013772;28;20045;-52
2021/11/16 07:29:15;;;;;;;44.53;21.05;;;;;;;6.60;95.74;101082.31;5041222;28;20068;-52
2021/11/16 07:31:43;;;;;;;46.80;22.35;;;;;;;6.69;95.71;101086.50;5035729;28;20041;-54
2021/11/16 07:34:20;;;;;;;46.47;21.95;;;;;;;6.69;96.38;101086.50;5030838;28;20524;-54
2021/11/16 07:36:55;;;;;;;51.50;22.42;;;;;;;6.66;96.03;101082.19;5028246;28;20048;-55
2021/11/16 07:39:25;;;;;;;43.22;20.35;;;;;;;6.73;95.85;101087.31;5037743;28;20076;-55
2021/11/16 07:42:03;;;;;;;45.55;21.85;;;;;;;6.68;95.50;101085.66;5035213;28;20532;-54
2021/11/16 07:44:30;;;;;;;45.05;21.50;;;;;;;6.78;97.84;101093.34;5030673;28;20053;-52
2021/11/16 07:46:57;;;;;;;49.67;22.67;;;;;;;6.85;97.37;101084.44;5033094;28;20533;-55
2021/11/16 07:49:25;;;;;;;50.80;22.10;;;;;;;6.84;96.11;101082.69;5031737;28;20056;-53
2021/11/16 07:51:54;;;;;;;49.33;22.48;;;;;;;6.85;96.43;101082.66;5036662;28;20053;-51
2021/11/16 07:54:22;;;;;;;46.35;21.23;;;;;;;6.78;95.57;101069.66;5029780;28;20052;-52
2021/11/16 07:56:49;;;;;;;45.63;21.15;;;;;;;6.88;94.43;101087.88;5030638;28;20047;-51
2021/11/16 07:59:17;;;;;;;48.95;22.25;;;;;;;6.91;94.49;101086.97;5034735;28;20063;-52
2021/11/16 08:01:57;;;;;;;46.63;20.67;;;;;;;6.93;95.12;101080.72;5025867;28;20045;-51
2021/11/16 08:04:32;;;;;;;43.22;21.52;;;;;;;6.96;94.79;101077.16;5023718;28;20211;-52
2021/11/16 08:09:51;;;;;;;45.40;20.52;;;;;;;6.98;93.84;101081.50;5033497;28;20041;-52
2021/11/16 08:15:09;;;;;;;44.67;21.40;;;;;;;6.95;93.94;101084.19;5028065;28;20049;-52
2021/11/16 08:17:39;;;;;;;45.53;20.00;;;;;;;6.95;93.56;101078.94;5024540;28;20059;-53
2021/11/16 08:20:13;;;;;;;43.30;21.00;;;;;;;6.98;93.65;101076.25;5025360;28;20056;-53
2021/11/16 08:22:41;;;;;;;44.13;20.25;;;;;;;6.97;93.32;101077.13;5026625;28;20053;-54
2021/11/16 08:25:10;;;;;;;45.05;20.23;;;;;;;6.98;93.71;101078.00;5027545;28;20053;-52
2021/11/16 08:27:39;;;;;;;40.97;19.90;;;;;;;6.95;93.22;101065.78;5023223;28;20481;-51
2021/11/16 08:30:16;;;;;;;41.55;20.00;;;;;;;6.95;94.08;101076.31;5026974;28;20045;-51
2021/11/16 08:32:44;;;;;;;43.20;20.48;;;;;;;6.97;93.40;101073.63;5030967;28;20368;-52
2021/11/16 08:35:16;;;;;;;42.75;20.40;;;;;;;6.98;93.21;101068.34;5024120;28;20045;-52
2021/11/16 08:37:45;;;;;;;41.72;19.83;;;;;;;6.99;93.10;101077.13;5025482;28;20056;-52
2021/11/16 08:40:20;;;;;;;43.90;19.55;;;;;;;7.00;92.92;101066.56;5022102;28;20052;-52
2021/11/16 08:42:57;;;;;;;41.72;20.17;;;;;;;6.99;92.36;101077.13;5028602;28;20049;-54
2021/11/16 08:45:27;;;;;;;38.47;19.23;;;;;;;6.93;92.23;101071.97;5031474;28;20528;-52
2021/11/16 08:48:04;;;;;;;;;;;;;;;6.90;92.82;101072.94;5026088;28;20514;-52
2021/11/16 08:50:34;;;;;;;39.58;18.73;;;;;;;6.95;92.59;101075.44;5034540;28;20384;-51
2021/11/16 08:53:06;;;;;;;38.97;19.40;;;;;;;6.91;93.05;101073.78;5028009;28;20041;-51
2021/11/16 08:55:37;;;;;;;40.22;19.75;;;;;;;6.92;93.03;101081.66;5013516;28;20051;-53
2021/11/16 08:58:11;;;;;;;40.85;19.13;;;;;;;6.94;92.76;101084.22;5001649;28;20077;-54
2021/11/16 09:00:51;;;;;;;44.47;20.43;;;;;;;6.92;92.74;101080.78;5014086;28;20049;-52
2021/11/16 09:03:26;;;;;;;43.00;20.33;;;;;;;6.90;92.51;101075.56;5009354;28;20046;-53
2021/11/16 09:05:53;;;;;;;43.50;20.65;;;;;;;6.89;92.97;101075.59;5007794;28;20049;-53
2021/11/16 09:08:27;;;;;;;42.95;19.05;;;;;;;6.85;92.77;101068.66;4998762;28;20400;-53
2021/11/16 09:11:00;;;;;;;42.08;19.42;;;;;;;6.86;93.65;101070.38;5018766;28;20042;-53
2021/11/16 09:13:29;;;;;;;45.78;19.98;;;;;;;6.85;93.24;101073.91;5012903;28;20044;-53
2021/11/16 09:16:03;;;;;;;41.25;19.50;;;;;;;6.84;94.00;101075.66;5004102;28;20045;-51
2021/11/16 09:18:38;;;;;;;47.67;21.05;;;;;;;6.86;94.21;101065.13;5004783;28;20415;-51
2021/11/16 09:21:11;;;;;;;39.80;20.17;;;;;;;6.90;93.50;101074.69;5006817;28;20038;-52
2021/11/16 09:23:41;;;;;;;44.45;20.35;;;;;;;6.91;93.36;101071.16;5013959;28;20046;-53
2021/11/16 09:26:22;;;;;;;42.95;19.63;;;;;;;6.91;93.42;101068.53;5016746;28;20056;-57
2021/11/16 09:28:54;;;;;;;39.60;19.63;;;;;;;6.91;93.38;101068.53;5008786;28;20049;-51
2021/11/16 09:31:28;;;;;;;39.40;18.92;;;;;;;6.89;93.96;101072.94;5012187;28;20038;-52
2021/11/16 09:33:59;;;;;;;42.55;20.85;;;;;;;6.92;93.32;101075.53;5005126;28;20736;-53
2021/11/16 09:36:33;;;;;;;42.63;19.63;;;;;;;6.90;93.20;101074.69;5013113;28;20406;-53
2021/11/16 09:39:07;;;;;;;41.50;20.00;;;;;;;6.90;93.56;101072.94;5011569;28;20067;-52
2021/11/16 09:41:44;;;;;;;44.38;20.73;;;;;;;6.91;93.17;101068.53;5012020;28;20123;-55
2021/11/16 09:44:20;;;;;;;39.78;19.48;;;;;;;6.92;93.33;101067.63;5029104;28;20052;-52
2021/11/16 09:46:52;;;;;;;45.22;20.45;;;;;;;6.89;93.84;101068.56;5031404;28;20049;-53
2021/11/16 09:49:48;;;;;;;42.35;19.83;;;;;;;6.92;93.41;101063.22;5033178;28;20076;-52
2021/11/16 09:52:42;;;;;;;41.22;20.73;;;;;;;6.90;93.63;101072.94;5038249;28;20056;-52
2021/11/16 09:55:21;;;;;;;45.33;20.48;;;;;;;6.90;93.59;101069.44;5014614;28;20049;-52
2021/11/16 09:57:55;;;;;;;43.25;19.23;;;;;;;6.91;93.87;101071.16;5024662;28;20053;-53
2021/11/16 10:00:25;;;;;;;41.35;20.13;;;;;;;6.94;93.63;101076.34;5037893;28;20052;-51
2021/11/16 10:03:15;;;;;;;45.67;22.23;;;;;;;6.96;93.87;101069.28;5032875;28;20498;-52
2021/11/16 10:05:47;;;;;;;46.20;21.02;;;;;;;6.98;93.85;101072.75;5031911;28;20135;-52
2021/11/16 10:08:14;;;;;;;41.08;19.85;;;;;;;7.02;93.93;101069.16;5029668;28;20053;-52
2021/11/16 10:10:44;;;;;;;45.10;20.77;;;;;;;7.08;92.77;101079.56;5029946;28;20041;-52
2021/11/16 10:13:15;;;;;;;44.40;19.97;;;;;;;7.09;92.15;101072.50;5037018;28;20045;-52
2021/11/16 10:15:45;;;;;;;42.30;21.27;;;;;;;7.12;92.42;101072.44;5034029;28;20052;-53
2021/11/16 10:18:15;;;;;;;43.28;20.20;;;;;;;7.12;91.99;101073.31;5028348;28;21079;-51
2021/11/16 10:20:45;;;;;;;45.10;20.50;;;;;;;7.15;91.52;101078.50;5034352;28;20499;-52
2021/11/16 10:23:18;;;;;;;42.22;19.80;;;;;;;7.14;92.11;101076.78;5032709;28;20049;-53
2021/11/16 10:25:51;;;;;;;43.85;20.98;;;;;;;7.15;91.55;101067.97;5034511;28;20041;-53
2021/11/16 10:28:18;;;;;;;43.38;20.92;;;;;;;7.14;91.92;101068.00;5026253;28;20106;-52
2021/11/16 10:30:45;;;;;;;38.88;20.00;;;;;;;7.13;91.82;101061.88;5033200;28;20368;-52
2021/11/16 10:33:18;;;;;;;46.40;21.13;;;;;;;6.98;91.46;101041.16;5023657;28;20072;-53
2021/11/16 10:35:55;;;;;;;44.08;20.73;;;;;;;7.07;91.91;101058.53;5032319;28;20336;-53
2021/11/16 10:38:28;;;;;;;41.50;19.73;;;;;;;7.03;92.16;101060.34;5027820;28;20049;-53
2021/11/16 10:40:57;;;;;;;45.80;20.85;;;;;;;7.03;92.50;101061.22;5042309;28;20037;-52
2021/11/16 10:43:35;;;;;;;42.63;20.17;;;;;;;7.05;92.42;101055.94;5038009;28;20419;-51
2021/11/16 10:46:04;;;;;;;42.58;20.00;;;;;;;7.02;92.55;101062.13;5036383;28;20045;-52
2021/11/16 10:48:31;;;;;;;41.53;20.08;;;;;;;7.03;92.68;101053.31;5027469;28;20783;-52
2021/11/16 10:50:58;;;;;;;40.53;19.88;;;;;;;7.07;92.76;101053.25;5040190;28;20041;-53
2021/11/16 10:53:26;;;;;;;42.38;21.15;;;;;;;7.09;92.63;101041.75;5032730;28;20617;-52
2021/11/16 10:55:56;;;;;;;40.40;19.65;;;;;;;7.14;91.54;101044.31;5039895;28;20049;-52
2021/11/16 10:58:39;;;;;;;42.33;20.38;;;;;;;7.18;91.44;101038.94;5028868;28;20048;-51
2021/11/16 11:01:14;;;;;;;39.60;20.80;;;;;;;7.19;91.23;101045.94;5037712;28;20049;-51
2021/11/16 11:03:44;;;;;;;43.67;21.38;;;;;;;7.13;91.80;101043.44;5030045;28;20079;-51
2021/11/16 11:06:31;;;;;;;40.08;19.98;;;;;;;7.08;91.84;101037.44;5028596;28;20119;-53
2021/11/16 11:09:04;;;;;;;45.97;20.88;;;;;;;7.05;92.24;101034.84;5010730;28;20046;-52
2021/11/16 11:11:33;;;;;;;40.50;20.35;;;;;;;7.05;92.61;101034.84;5021900;28;20051;-52
2021/11/16 11:14:22;;;;;;;39.10;19.50;;;;;;;7.07;92.58;101024.28;5015316;28;20056;-52
2021/11/16 11:16:58;;;;;;;44.22;20.63;;;;;;;7.09;92.73;101020.69;5019578;28;20053;-52
2021/11/16 11:19:29;;;;;;;44.72;21.88;;;;;;;7.08;91.96;101016.38;5030896;28;22135;-52
2021/11/16 11:22:00;;;;;;;43.92;21.35;;;;;;;7.11;92.02;101007.50;5026615;28;20049;-51
2021/11/16 11:24:40;;;;;;;41.10;20.75;;;;;;;7.11;92.63;101007.50;5027005;28;20064;-52
2021/11/16 11:27:29;;;;;;;47.95;21.40;;;;;;;7.18;92.01;101009.09;5028612;28;20082;-52
2021/11/16 11:29:59;;;;;;;43.78;21.13;;;;;;;7.11;91.84;101010.13;5029722;28;20503;-53
2021/11/16 11:32:37;;;;;;;47.42;22.02;;;;;;;7.00;92.37;100998.09;5032233;28;20064;-57
2021/11/16 11:35:10;;;;;;;44.22;20.73;;;;;;;7.09;92.42;101014.56;5025278;28;20054;-53
2021/11/16 11:37:45;;;;;;;43.20;21.48;;;;;;;7.09;92.29;101010.16;5026674;28;20045;-53
2021/11/16 11:40:15;;;;;;;42.78;21.45;;;;;;;7.11;92.91;101004.88;5031790;28;20621;-53
2021/11/16 11:43:02;;;;;;;37.75;19.58;;;;;;;7.08;92.76;101000.56;5035800;28;20056;-53
2021/11/16 11:45:36;;;;;;;39.13;19.90;;;;;;;7.11;93.56;100997.81;5033799;28;20096;-51
2021/11/16 11:48:02;;;;;;;41.40;20.08;;;;;;;7.16;92.87;100997.72;5031963;28;20186;-54
2021/11/16 11:50:36;;;;;;;40.42;20.33;;;;;;;7.13;92.80;101000.44;5030004;28;20529;-53
2021/11/16 11:53:06;;;;;;;43.70;19.77;;;;;;;7.13;93.10;101006.56;5030737;28;20045;-52
2021/11/16 11:55:37;;;;;;;41.33;20.55;;;;;;;7.16;93.66;100998.59;5028408;28;20053;-53
2021/11/16 11:58:05;;;;;;;45.40;20.80;;;;;;;7.19;93.21;100995.91;5026405;28;20056;-52